Main page
METAR-TAF:

METAR-TAF

Airports :

Kristianstad Airport

Kristianstad, Sweden

latitude: 55-55N, longitude: 014-05E, elevation: 23 m

Current weather observation

The report was made 26 minutes ago, at 19:20 UTC
Wind 3 kt from the South/Southeast
Temperature 9°C
Humidity 81%
Pressure 1023 hPa
Visibility 10 km or more

METAR: ESMK 021920Z AUTO 15003KT 9999 NCD 09/06 Q1023

Time: 21:46 (19:46 UTC)

Forecast

The report was made 8 hours and 37 minutes ago, at 11:09 UTC
Forecast valid from 02 at 12 UTC to 02 at 16 UTC
Wind 10 kt from the North
Visibility 10 km or more
no clouds below 1500 m and no cumulonimbus
Becoming
from 02 at 13 UTC to 02 at 15 UTC
Wind 10 kt from the Southeast

TAF: ESMK 021109Z 0212/0216 36010KT CAVOK BECMG 0213/0215 13010KT

Weather observations and forecasts of more than 4000 airports (METAR and TAF reports).

The available stations are represented by yellow and red dots on the map.

Hover mouse over dot to see the name of the station.

Then click to see weather observations and forecasts.

To change the map : click on the green buttons with a black cross to zoom in, on the green button with a dash to zoom out, or on the green arrows for adjacent maps.


METAR-TAF: